Time,TemperatureF,DewpointF,PressureIn,WindDirection,WindDirectionDegrees,WindSpeedMPH,WindSpeedGustMPH,Humidity,HourlyPrecipIn,Conditions,Clouds,dailyrainin,SolarRadiationWatts/m^2,SoftwareType,DateUTC
2014-01-31 00:02:00,40.0,31.0,-100.00,North,4,27.0,47.0,69,0.00,,,-99.99,0.000000,,2014-01-31 08:02:00,
2014-01-31 00:12:00,40.0,31.0,-100.00,North,4,27.0,47.0,69,0.00,,,-99.99,0.000000,,2014-01-31 08:12:00,
2014-01-31 00:21:00,40.0,31.0,-100.00,North,4,27.0,47.0,69,0.00,,,-99.99,0.000000,,2014-01-31 08:21:00,
2014-01-31 00:32:00,39.0,30.0,-100.00,North,3,23.0,48.0,71,0.00,,,0.04,0.000000,,2014-01-31 08:32:00,
2014-01-31 00:52:00,39.0,30.0,-100.00,North,3,23.0,48.0,71,0.00,,,0.04,0.000000,,2014-01-31 08:52:00,
2014-01-31 01:02:00,39.0,30.0,-100.00,North,3,23.0,48.0,71,0.00,,,0.04,0.000000,,2014-01-31 09:02:00,
2014-01-31 01:11:00,39.0,30.0,-100.00,North,3,23.0,48.0,71,0.00,,,0.04,0.000000,,2014-01-31 09:11:00,
2014-01-31 01:21:00,39.0,30.0,-100.00,North,3,23.0,48.0,71,0.00,,,0.04,0.000000,,2014-01-31 09:21:00,
2014-01-31 01:32:00,38.0,31.0,-100.00,North,5,24.0,41.0,77,0.00,,,0.04,0.000000,,2014-01-31 09:32:00,
2014-01-31 01:53:00,38.0,31.0,-100.00,North,5,24.0,41.0,77,0.00,,,0.04,0.000000,,2014-01-31 09:53:00,
2014-01-31 02:03:00,38.0,31.0,-100.00,North,5,24.0,41.0,77,0.00,,,0.04,0.000000,,2014-01-31 10:03:00,
2014-01-31 02:12:00,38.0,31.0,-100.00,North,5,24.0,41.0,77,0.00,,,0.04,0.000000,,2014-01-31 10:12:00,
2014-01-31 02:23:00,38.0,31.0,-100.00,North,5,24.0,41.0,77,0.00,,,0.04,0.000000,,2014-01-31 10:23:00,
2014-01-31 02:32:00,37.0,32.0,-100.00,North,4,26.0,51.0,82,0.00,,,0.04,0.000000,,2014-01-31 10:32:00,
2014-01-31 02:53:00,37.0,32.0,-100.00,North,4,26.0,51.0,82,0.00,,,0.04,0.000000,,2014-01-31 10:53:00,
2014-01-31 03:02:00,37.0,32.0,-100.00,North,4,26.0,51.0,82,0.00,,,0.04,0.000000,,2014-01-31 11:02:00,
2014-01-31 03:12:00,37.0,32.0,-100.00,North,4,26.0,51.0,82,0.00,,,0.04,0.000000,,2014-01-31 11:12:00,
2014-01-31 03:22:00,37.0,32.0,-100.00,North,4,26.0,51.0,82,0.00,,,0.04,0.000000,,2014-01-31 11:22:00,
2014-01-31 03:32:00,36.0,29.0,-100.00,NNE,20,18.0,43.0,77,0.00,,,0.04,0.000000,,2014-01-31 11:32:00,
2014-01-31 03:52:00,36.0,29.0,-100.00,NNE,20,18.0,43.0,77,0.00,,,0.04,0.000000,,2014-01-31 11:52:00,
2014-01-31 04:02:00,36.0,29.0,-100.00,NNE,20,18.0,43.0,77,0.00,,,0.04,0.000000,,2014-01-31 12:02:00,
2014-01-31 04:11:00,36.0,29.0,-100.00,NNE,20,18.0,43.0,77,0.00,,,0.04,0.000000,,2014-01-31 12:11:00,
2014-01-31 04:22:00,36.0,29.0,-100.00,NNE,20,18.0,43.0,77,0.00,,,0.04,0.000000,,2014-01-31 12:22:00,
2014-01-31 04:32:00,36.0,30.0,-100.00,NNE,15,16.0,35.0,80,0.00,,,0.04,0.000000,,2014-01-31 12:32:00,
2014-01-31 04:52:00,36.0,30.0,-100.00,NNE,15,16.0,35.0,80,0.00,,,0.04,0.000000,,2014-01-31 12:52:00,
2014-01-31 05:02:00,36.0,30.0,-100.00,NNE,15,16.0,35.0,80,0.00,,,0.04,0.000000,,2014-01-31 13:02:00,
2014-01-31 05:12:00,36.0,30.0,-100.00,NNE,15,16.0,35.0,80,0.00,,,0.04,0.000000,,2014-01-31 13:12:00,
2014-01-31 05:22:00,36.0,30.0,-100.00,NNE,15,16.0,35.0,80,0.00,,,0.04,0.000000,,2014-01-31 13:22:00,
2014-01-31 05:32:00,33.0,28.0,-100.00,North,6,21.0,31.0,83,0.00,,,0.04,0.000000,,2014-01-31 13:32:00,
2014-01-31 05:52:00,33.0,28.0,-100.00,North,6,21.0,31.0,83,0.00,,,0.04,0.000000,,2014-01-31 13:52:00,
2014-01-31 06:02:00,33.0,28.0,-100.00,North,6,21.0,31.0,83,0.00,,,0.04,0.000000,,2014-01-31 14:02:00,
2014-01-31 06:11:00,33.0,28.0,-100.00,North,6,21.0,31.0,83,0.00,,,0.04,0.000000,,2014-01-31 14:11:00,
2014-01-31 06:22:00,33.0,28.0,-100.00,North,6,21.0,31.0,83,0.00,,,0.04,0.000000,,2014-01-31 14:22:00,
2014-01-31 06:32:00,34.0,29.0,-100.00,West,265,19.0,36.0,83,0.00,,,0.04,0.000000,,2014-01-31 14:32:00,
2014-01-31 06:52:00,34.0,29.0,-100.00,West,265,19.0,36.0,83,0.00,,,0.04,0.000000,,2014-01-31 14:52:00,
2014-01-31 07:02:00,34.0,29.0,-100.00,West,265,19.0,36.0,83,0.00,,,0.04,0.000000,,2014-01-31 15:02:00,
2014-01-31 07:11:00,34.0,29.0,-100.00,West,265,19.0,36.0,83,0.00,,,0.04,0.000000,,2014-01-31 15:11:00,
2014-01-31 07:22:00,34.0,29.0,-100.00,West,265,19.0,36.0,83,0.00,,,0.04,0.000000,,2014-01-31 15:22:00,
2014-01-31 07:32:00,34.0,29.0,-100.00,NNW,332,17.0,36.0,82,0.00,,,0.04,54.000000,,2014-01-31 15:32:00,
2014-01-31 07:54:00,34.0,29.0,-100.00,NNW,332,17.0,36.0,82,0.00,,,0.04,54.000000,,2014-01-31 15:54:00,
2014-01-31 08:03:00,34.0,29.0,-100.00,NNW,332,17.0,36.0,82,0.00,,,0.04,54.000000,,2014-01-31 16:03:00,
2014-01-31 08:12:00,34.0,29.0,-100.00,NNW,332,17.0,36.0,82,0.00,,,0.04,54.000000,,2014-01-31 16:12:00,
2014-01-31 08:23:00,34.0,29.0,-100.00,NNW,332,17.0,36.0,82,0.00,,,0.04,54.000000,,2014-01-31 16:23:00,
2014-01-31 08:32:00,35.0,27.0,-100.00,WNW,292,23.0,37.0,72,0.00,,,0.04,49.000000,,2014-01-31 16:32:00,
2014-01-31 08:53:00,35.0,27.0,-100.00,WNW,292,23.0,37.0,72,0.00,,,0.04,49.000000,,2014-01-31 16:53:00,
2014-01-31 09:02:00,35.0,27.0,-100.00,WNW,292,23.0,37.0,72,0.00,,,0.04,49.000000,,2014-01-31 17:02:00,
2014-01-31 09:12:00,35.0,27.0,-100.00,WNW,292,23.0,37.0,72,0.00,,,0.04,49.000000,,2014-01-31 17:12:00,
2014-01-31 09:22:00,35.0,27.0,-100.00,WNW,292,23.0,37.0,72,0.00,,,0.04,49.000000,,2014-01-31 17:22:00,
2014-01-31 09:32:00,36.0,25.0,-100.00,NW,304,19.0,34.0,64,0.00,,,0.04,353.000000,,2014-01-31 17:32:00,
2014-01-31 09:52:00,36.0,25.0,-100.00,NW,304,19.0,34.0,64,0.00,,,0.04,353.000000,,2014-01-31 17:52:00,
2014-01-31 10:02:00,36.0,25.0,-100.00,NW,304,19.0,34.0,64,0.00,,,0.04,353.000000,,2014-01-31 18:02:00,
2014-01-31 10:11:00,36.0,25.0,-100.00,NW,304,19.0,34.0,64,0.00,,,0.04,353.000000,,2014-01-31 18:11:00,
2014-01-31 10:22:00,36.0,25.0,-100.00,NW,304,19.0,34.0,64,0.00,,,0.04,353.000000,,2014-01-31 18:22:00,
2014-01-31 10:32:00,36.0,27.0,-100.00,NNW,341,12.0,26.0,69,0.00,,,0.04,569.000000,,2014-01-31 18:32:00,
2014-01-31 11:11:00,36.0,27.0,-100.00,NNW,341,12.0,26.0,69,0.00,,,0.04,569.000000,,2014-01-31 19:11:00,
2014-01-31 11:21:00,36.0,27.0,-100.00,NNW,341,12.0,26.0,69,0.00,,,0.04,569.000000,,2014-01-31 19:21:00,
2014-01-31 11:32:00,38.0,27.0,-100.00,NW,308,12.0,23.0,63,0.00,,,0.02,669.000000,,2014-01-31 19:32:00,
2014-01-31 11:52:00,38.0,27.0,-100.00,NW,308,12.0,23.0,63,0.00,,,0.02,669.000000,,2014-01-31 19:52:00,
2014-01-31 12:02:00,38.0,27.0,-100.00,NW,308,12.0,23.0,63,0.00,,,0.02,669.000000,,2014-01-31 20:02:00,
2014-01-31 12:12:00,38.0,27.0,-100.00,NW,308,12.0,23.0,63,0.00,,,0.02,669.000000,,2014-01-31 20:12:00,
2014-01-31 12:21:00,38.0,27.0,-100.00,NW,308,12.0,23.0,63,0.00,,,0.02,669.000000,,2014-01-31 20:21:00,
2014-01-31 12:32:00,40.0,28.0,-100.00,WNW,300,16.0,25.0,63,0.00,,,0.01,720.000000,,2014-01-31 20:32:00,
2014-01-31 12:52:00,40.0,28.0,-100.00,WNW,300,16.0,25.0,63,0.00,,,0.01,720.000000,,2014-01-31 20:52:00,
2014-01-31 13:02:00,40.0,28.0,-100.00,WNW,300,16.0,25.0,63,0.00,,,0.01,720.000000,,2014-01-31 21:02:00,
2014-01-31 13:11:00,40.0,28.0,-100.00,WNW,300,16.0,25.0,63,0.00,,,0.01,720.000000,,2014-01-31 21:11:00,
2014-01-31 13:21:00,40.0,28.0,-100.00,WNW,300,16.0,25.0,63,0.00,,,0.01,720.000000,,2014-01-31 21:21:00,
2014-01-31 13:32:00,39.0,28.0,-100.00,NW,319,16.0,29.0,64,0.00,,,0.01,695.000000,,2014-01-31 21:32:00,
2014-01-31 13:53:00,39.0,28.0,-100.00,NW,319,16.0,29.0,64,0.00,,,0.01,695.000000,,2014-01-31 21:53:00,
2014-01-31 14:03:00,39.0,28.0,-100.00,NW,319,16.0,29.0,64,0.00,,,0.01,695.000000,,2014-01-31 22:03:00,
2014-01-31 14:12:00,39.0,28.0,-100.00,NW,319,16.0,29.0,64,0.00,,,0.01,695.000000,,2014-01-31 22:12:00,
2014-01-31 14:23:00,39.0,28.0,-100.00,NW,319,16.0,29.0,64,0.00,,,0.01,695.000000,,2014-01-31 22:23:00,
2014-01-31 14:32:00,38.0,27.0,-100.00,NW,308,15.0,44.0,63,0.00,,,0.01,479.000000,,2014-01-31 22:32:00,
2014-01-31 14:53:00,38.0,27.0,-100.00,NW,308,15.0,44.0,63,0.00,,,0.01,479.000000,,2014-01-31 22:53:00,
2014-01-31 15:02:00,38.0,27.0,-100.00,NW,308,15.0,44.0,63,0.00,,,0.01,479.000000,,2014-01-31 23:02:00,
2014-01-31 15:11:00,38.0,27.0,-100.00,NW,308,15.0,44.0,63,0.00,,,0.01,479.000000,,2014-01-31 23:11:00,
2014-01-31 15:22:00,38.0,27.0,-100.00,NW,308,15.0,44.0,63,0.00,,,0.01,479.000000,,2014-01-31 23:22:00,
2014-01-31 15:53:00,35.0,24.0,-100.00,NW,319,22.0,37.0,64,0.00,,,0.01,201.000000,,2014-01-31 23:53:00,
2014-01-31 16:02:00,35.0,24.0,-100.00,NW,319,22.0,37.0,64,0.00,,,0.01,201.000000,,2014-02-01 00:02:00,
2014-01-31 16:12:00,35.0,24.0,-100.00,NW,319,22.0,37.0,64,0.00,,,0.01,201.000000,,2014-02-01 00:12:00,
2014-01-31 16:21:00,35.0,24.0,-100.00,NW,319,22.0,37.0,64,0.00,,,0.01,201.000000,,2014-02-01 00:21:00,
2014-01-31 16:31:00,35.0,24.0,-100.00,NW,319,22.0,37.0,64,0.00,,,0.01,201.000000,,2014-02-01 00:31:00,
2014-01-31 16:32:00,35.0,23.0,-100.00,NW,308,18.0,33.0,61,0.00,,,0.00,24.000000,,2014-02-01 00:32:00,
2014-01-31 16:52:00,35.0,23.0,-100.00,NW,308,18.0,33.0,61,0.00,,,0.00,24.000000,,2014-02-01 00:52:00,
2014-01-31 17:01:00,35.0,23.0,-100.00,NW,308,18.0,33.0,61,0.00,,,0.00,24.000000,,2014-02-01 01:01:00,
2014-01-31 17:11:00,35.0,23.0,-100.00,NW,308,18.0,33.0,61,0.00,,,0.00,24.000000,,2014-02-01 01:11:00,
2014-01-31 17:22:00,35.0,23.0,-100.00,NW,308,18.0,33.0,61,0.00,,,0.00,24.000000,,2014-02-01 01:22:00,
2014-01-31 17:32:00,36.0,22.0,-100.00,NW,308,19.0,28.0,56,0.00,,,0.00,8.000000,,2014-02-01 01:32:00,
2014-01-31 17:52:00,36.0,22.0,-100.00,NW,308,19.0,28.0,56,0.00,,,0.00,8.000000,,2014-02-01 01:52:00,
2014-01-31 18:01:00,36.0,22.0,-100.00,NW,308,19.0,28.0,56,0.00,,,0.00,8.000000,,2014-02-01 02:01:00,
2014-01-31 18:11:00,36.0,22.0,-100.00,NW,308,19.0,28.0,56,0.00,,,0.00,8.000000,,2014-02-01 02:11:00,
2014-01-31 18:21:00,36.0,22.0,-100.00,NW,308,19.0,28.0,56,0.00,,,0.00,8.000000,,2014-02-01 02:21:00,
2014-01-31 18:32:00,37.0,14.0,-100.00,WNW,291,24.0,35.0,39,0.00,,,0.00,0.000000,,2014-02-01 02:32:00,
2014-01-31 18:52:00,37.0,14.0,-100.00,WNW,291,24.0,35.0,39,0.00,,,0.00,0.000000,,2014-02-01 02:52:00,
2014-01-31 19:02:00,37.0,14.0,-100.00,WNW,291,24.0,35.0,39,0.00,,,0.00,0.000000,,2014-02-01 03:02:00,
2014-01-31 19:12:00,37.0,14.0,-100.00,WNW,291,24.0,35.0,39,0.00,,,0.00,0.000000,,2014-02-01 03:12:00,
2014-01-31 19:22:00,37.0,14.0,-100.00,WNW,291,24.0,35.0,39,0.00,,,0.00,0.000000,,2014-02-01 03:22:00,
2014-01-31 19:32:00,37.0,13.0,-100.00,WNW,296,24.0,36.0,36,0.00,,,0.00,0.000000,,2014-02-01 03:32:00,
2014-01-31 19:53:00,37.0,13.0,-100.00,WNW,296,24.0,36.0,36,0.00,,,0.00,0.000000,,2014-02-01 03:53:00,
2014-01-31 20:03:00,37.0,13.0,-100.00,WNW,296,24.0,36.0,36,0.00,,,0.00,0.000000,,2014-02-01 04:03:00,
2014-01-31 20:13:00,37.0,13.0,-100.00,WNW,296,24.0,36.0,36,0.00,,,0.00,0.000000,,2014-02-01 04:13:00,
2014-01-31 20:23:00,37.0,13.0,-100.00,WNW,296,24.0,36.0,36,0.00,,,0.00,0.000000,,2014-02-01 04:23:00,
2014-01-31 20:32:00,36.0,17.0,-100.00,WNW,298,22.0,35.0,46,0.00,,,0.00,0.000000,,2014-02-01 04:32:00,
2014-01-31 20:52:00,36.0,17.0,-100.00,WNW,298,22.0,35.0,46,0.00,,,0.00,0.000000,,2014-02-01 04:52:00,
2014-01-31 21:02:00,36.0,17.0,-100.00,WNW,298,22.0,35.0,46,0.00,,,0.00,0.000000,,2014-02-01 05:02:00,
2014-01-31 21:12:00,36.0,17.0,-100.00,WNW,298,22.0,35.0,46,0.00,,,0.00,0.000000,,2014-02-01 05:12:00,
2014-01-31 21:22:00,36.0,17.0,-100.00,WNW,298,22.0,35.0,46,0.00,,,0.00,0.000000,,2014-02-01 05:22:00,
2014-01-31 21:32:00,35.0,20.0,-100.00,WNW,285,20.0,34.0,54,0.00,,,0.00,0.000000,,2014-02-01 05:32:00,
2014-01-31 21:53:00,35.0,20.0,-100.00,WNW,285,20.0,34.0,54,0.00,,,0.00,0.000000,,2014-02-01 05:53:00,
2014-01-31 22:02:00,35.0,20.0,-100.00,WNW,285,20.0,34.0,54,0.00,,,0.00,0.000000,,2014-02-01 06:02:00,
2014-01-31 22:12:00,35.0,20.0,-100.00,WNW,285,20.0,34.0,54,0.00,,,0.00,0.000000,,2014-02-01 06:12:00,
2014-01-31 22:22:00,35.0,20.0,-100.00,WNW,285,20.0,34.0,54,0.00,,,0.00,0.000000,,2014-02-01 06:22:00,
2014-01-31 22:32:00,34.0,17.0,-100.00,WNW,303,18.0,34.0,49,0.00,,,0.00,0.000000,,2014-02-01 06:32:00,
2014-01-31 22:52:00,34.0,17.0,-100.00,WNW,303,18.0,34.0,49,0.00,,,0.00,0.000000,,2014-02-01 06:52:00,
2014-01-31 23:02:00,34.0,17.0,-100.00,WNW,303,18.0,34.0,49,0.00,,,0.00,0.000000,,2014-02-01 07:02:00,
2014-01-31 23:12:00,34.0,17.0,-100.00,WNW,303,18.0,34.0,49,0.00,,,0.00,0.000000,,2014-02-01 07:12:00,
2014-01-31 23:22:00,34.0,17.0,-100.00,WNW,303,18.0,34.0,49,0.00,,,0.00,0.000000,,2014-02-01 07:22:00,
2014-01-31 23:32:00,33.0,16.0,-100.00,NNW,331,6.0,21.0,50,0.00,,,0.00,0.000000,,2014-02-01 07:32:00,
2014-01-31 23:52:00,33.0,16.0,-100.00,NNW,331,6.0,21.0,50,0.00,,,0.00,0.000000,,2014-02-01 07:52:00,